Time;durP1;ratioP1;P1;durP2;ratioP2;P2;SDS_P1;SDS_P2;PMS_P1;PMS_P2;Temp;Humidity;BMP_temperature;BMP_pressure;BME280_temperature;BME280_humidity;BME280_pressure;Samples;Min_cycle;Max_cycle;Signal;HPM_P1;HPM_P2
2022/07/29 00:00:23;;;;;;;2.88;1.20;;;;;;;26.14;26.27;101134.28;5040744;28;20243;-75
2022/07/29 00:02:51;;;;;;;3.53;1.20;;;;;;;26.12;26.46;101133.59;5047998;28;20045;-75
2022/07/29 00:05:19;;;;;;;3.10;1.27;;;;;;;26.10;25.96;101126.53;5069535;28;20044;-75
2022/07/29 00:07:47;;;;;;;3.20;1.20;;;;;;;26.07;26.23;101125.00;5045602;28;20050;-75
2022/07/29 00:10:17;;;;;;;3.17;1.30;;;;;;;26.10;26.25;101129.31;5038979;28;20058;-76
2022/07/29 00:12:45;;;;;;;2.75;1.17;;;;;;;26.04;26.61;101125.38;5045913;28;20040;-74
2022/07/29 00:15:13;;;;;;;2.70;1.17;;;;;;;26.03;26.41;101120.88;5053167;28;20517;-75
2022/07/29 00:17:42;;;;;;;3.92;1.35;;;;;;;26.02;26.42;101118.31;5061702;28;20113;-75
2022/07/29 00:20:10;;;;;;;3.47;1.50;;;;;;;26.00;26.59;101118.50;5054486;28;20090;-75
2022/07/29 00:22:39;;;;;;;2.97;1.13;;;;;;;25.98;26.19;101112.25;5068784;28;20123;-76
2022/07/29 00:25:08;;;;;;;2.47;1.20;;;;;;;25.98;26.31;101111.41;5057793;28;20053;-76
2022/07/29 00:27:38;;;;;;;2.78;1.10;;;;;;;25.97;26.49;101102.19;5054192;28;20392;-76
2022/07/29 00:30:07;;;;;;;2.53;1.35;;;;;;;25.95;26.29;101106.22;5030347;28;20064;-76
2022/07/29 00:32:36;;;;;;;5.18;1.40;;;;;;;25.91;26.50;101085.44;5054517;28;20140;-75
2022/07/29 00:37:50;;;;;;;2.78;1.23;;;;;;;25.84;26.53;101087.28;5040533;28;20045;-76
2022/07/29 00:40:18;;;;;;;3.28;1.40;;;;;;;25.82;26.82;101078.25;5060305;28;20071;-76
2022/07/29 00:42:53;;;;;;;2.42;1.20;;;;;;;25.78;26.97;101073.06;5071502;28;20048;-76
2022/07/29 00:45:21;;;;;;;4.72;1.30;;;;;;;25.76;26.51;101072.44;5048851;28;20100;-76
2022/07/29 00:47:50;;;;;;;2.15;1.10;;;;;;;25.74;27.13;101057.84;5036407;28;20052;-76
2022/07/29 00:50:18;;;;;;;3.17;1.40;;;;;;;25.73;26.81;101055.25;5044214;28;20447;-76
2022/07/29 00:52:47;;;;;;;3.72;1.33;;;;;;;25.72;26.74;101061.88;5030614;28;20041;-74
2022/07/29 00:55:16;;;;;;;4.68;1.50;;;;;;;25.72;27.14;101053.53;5030495;28;20049;-75
2022/07/29 00:57:45;;;;;;;2.92;1.10;;;;;;;25.70;27.20;101052.88;5032903;28;20063;-75
2022/07/29 01:00:18;;;;;;;2.88;1.13;;;;;;;25.71;27.35;101051.81;5062988;28;20048;-75
2022/07/29 01:02:48;;;;;;;4.38;1.52;;;;;;;25.68;27.06;101064.22;5062982;28;20509;-75
2022/07/29 01:05:19;;;;;;;3.10;1.20;;;;;;;25.70;27.38;101044.53;5030467;28;20098;-75
2022/07/29 01:07:49;;;;;;;3.95;1.23;;;;;;;25.69;27.39;101040.91;5030103;28;20041;-75
2022/07/29 01:10:19;;;;;;;2.10;1.10;;;;;;;25.70;26.97;101041.75;5046800;28;20049;-75
2022/07/29 01:12:50;;;;;;;3.42;1.30;;;;;;;25.72;27.48;101037.72;5061292;28;20131;-76
2022/07/29 01:15:21;;;;;;;3.63;1.48;;;;;;;25.71;27.27;101037.91;5059406;28;20086;-75
2022/07/29 01:17:58;;;;;;;3.78;1.45;;;;;;;25.75;27.51;101039.25;5048302;28;20557;-76
2022/07/29 01:20:34;;;;;;;3.28;1.20;;;;;;;25.75;27.04;101034.53;5050156;28;20501;-76
2022/07/29 01:23:38;;;;;;;4.07;1.40;;;;;;;25.74;27.63;101038.38;5065273;28;20105;-76
2022/07/29 01:26:32;;;;;;;2.63;1.50;;;;;;;25.75;27.33;101030.91;5054353;28;20037;-75
2022/07/29 01:29:12;;;;;;;2.97;1.50;;;;;;;25.77;27.38;101031.56;5039234;28;20492;-76
2022/07/29 01:31:46;;;;;;;2.95;1.35;;;;;;;25.77;27.59;101023.22;5045191;28;20558;-75
2022/07/29 01:34:35;;;;;;;4.72;1.65;;;;;;;25.77;27.58;101020.44;5012565;28;20441;-76
2022/07/29 01:37:10;;;;;;;4.05;1.88;;;;;;;25.77;27.48;101029.66;5050189;28;20044;-76
2022/07/29 01:39:40;;;;;;;4.18;1.85;;;;;;;25.76;27.47;101027.94;5046652;28;20041;-76
2022/07/29 01:42:15;;;;;;;5.30;2.10;;;;;;;25.78;27.15;101030.50;5039652;28;20052;-76
2022/07/29 01:44:51;;;;;;;4.65;1.90;;;;;;;25.80;27.32;101038.66;5036637;28;20056;-75
2022/07/29 01:47:24;;;;;;;6.45;2.08;;;;;;;25.78;27.56;101036.91;5069233;28;20033;-76
2022/07/29 01:49:55;;;;;;;5.32;2.13;;;;;;;25.76;27.77;101033.50;5039329;28;20037;-75
2022/07/29 01:52:30;;;;;;;5.90;2.25;;;;;;;25.80;27.69;101030.31;5039047;28;20045;-76
2022/07/29 01:55:04;;;;;;;3.70;1.90;;;;;;;25.78;27.78;101030.50;5059482;28;20049;-76
2022/07/29 01:57:34;;;;;;;3.90;1.70;;;;;;;25.77;27.64;101029.66;5063821;28;20502;-76
2022/07/29 02:00:05;;;;;;;3.40;1.35;;;;;;;25.78;27.70;101025.78;5053524;28;20044;-76
2022/07/29 02:02:40;;;;;;;3.78;1.70;;;;;;;25.76;27.57;101018.72;5030815;28;20497;-76
2022/07/29 02:05:11;;;;;;;2.65;1.35;;;;;;;25.78;27.89;101016.56;5044052;28;20091;-75
2022/07/29 02:07:41;;;;;;;3.30;1.30;;;;;;;25.74;27.55;101018.91;5062782;28;20141;-76
2022/07/29 02:10:11;;;;;;;2.72;1.30;;;;;;;25.76;27.34;101024.28;5032265;28;20073;-75
2022/07/29 02:12:41;;;;;;;3.45;1.30;;;;;;;25.75;27.53;101028.13;5061156;28;20098;-76
2022/07/29 02:15:18;;;;;;;2.38;1.33;;;;;;;25.75;27.70;101031.75;5053068;28;20472;-75
2022/07/29 02:17:50;;;;;;;5.22;1.75;;;;;;;25.75;27.65;101037.31;5059505;28;20453;-75
2022/07/29 02:20:20;;;;;;;3.72;1.35;;;;;;;25.73;27.63;101039.44;5062336;28;20516;-75
2022/07/29 02:22:50;;;;;;;2.88;1.20;;;;;;;25.74;27.60;101031.97;5050563;28;20190;-75
2022/07/29 02:25:19;;;;;;;4.68;1.70;;;;;;;25.73;27.62;101042.22;5062637;28;20041;-76
2022/07/29 02:27:49;;;;;;;3.33;1.20;;;;;;;25.72;27.85;101040.50;5042690;28;20036;-75
2022/07/29 02:30:19;;;;;;;3.55;1.48;;;;;;;25.73;27.85;101044.13;5040394;28;20044;-76
2022/07/29 02:32:49;;;;;;;3.08;1.33;;;;;;;25.73;27.99;101052.47;5070859;28;20115;-76
2022/07/29 02:35:18;;;;;;;2.58;1.33;;;;;;;25.71;27.75;101049.03;5042626;28;20048;-76
2022/07/29 02:38:49;;;;;;;2.38;1.30;;;;;;;25.71;27.90;101041.53;5018514;28;20140;-76
2022/07/29 02:40:39;;;;;;;2.42;1.20;;;;;;;25.71;27.74;101041.53;5030818;28;20517;-76
2022/07/29 02:43:09;;;;;;;6.32;1.45;;;;;;;25.69;27.73;101049.25;5028866;28;20123;-76
2022/07/29 02:45:39;;;;;;;2.75;1.10;;;;;;;25.70;27.51;101048.16;5041610;28;20079;-76
2022/07/29 02:48:14;;;;;;;3.10;1.50;;;;;;;25.69;28.23;101057.59;5044279;28;20048;-75
2022/07/29 02:50:49;;;;;;;3.53;1.35;;;;;;;25.68;28.15;101058.66;5053866;28;20095;-76
2022/07/29 02:53:21;;;;;;;3.90;1.50;;;;;;;25.66;27.68;101043.19;5039507;28;20049;-75
2022/07/29 02:55:54;;;;;;;2.75;1.40;;;;;;;25.64;28.03;101062.00;5062427;28;20090;-76
2022/07/29 02:58:28;;;;;;;3.90;1.60;;;;;;;25.63;28.31;101061.13;5062364;28;20037;-76
2022/07/29 03:01:00;;;;;;;3.53;2.00;;;;;;;25.60;27.73;101061.53;5046096;28;20537;-76
2022/07/29 03:03:31;;;;;;;6.43;2.40;;;;;;;25.56;27.68;101060.16;5062234;28;20043;-76
2022/07/29 03:06:02;;;;;;;3.30;1.90;;;;;;;25.58;27.56;101069.19;5043839;28;20289;-76
2022/07/29 03:08:31;;;;;;;4.30;2.10;;;;;;;25.55;27.55;101075.13;5049261;28;20032;-76
2022/07/29 03:11:01;;;;;;;6.15;2.20;;;;;;;25.52;27.99;101074.66;5040406;28;20072;-75
2022/07/29 03:13:31;;;;;;;3.42;1.63;;;;;;;25.51;27.93;101084.91;5041831;28;20083;-74
2022/07/29 03:16:01;;;;;;;3.50;1.98;;;;;;;25.50;27.96;101091.53;5047374;28;20125;-75
2022/07/29 03:18:29;;;;;;;3.58;2.03;;;;;;;25.47;27.83;101089.13;5066043;28;20082;-75
2022/07/29 03:20:58;;;;;;;3.78;1.77;;;;;;;25.45;28.42;101096.78;5049084;28;20076;-75
2022/07/29 03:23:27;;;;;;;3.72;1.60;;;;;;;25.43;28.49;101101.72;5028269;28;20450;-75
2022/07/29 03:26:02;;;;;;;3.40;1.58;;;;;;;25.41;29.28;101109.38;5012394;28;20045;-75
2022/07/29 03:28:30;;;;;;;3.17;1.40;;;;;;;25.41;28.96;101120.50;5036949;28;20124;-75
2022/07/29 03:31:00;;;;;;;3.40;1.42;;;;;;;25.40;29.41;101114.06;5060590;28;20139;-75
2022/07/29 03:33:30;;;;;;;3.75;1.52;;;;;;;25.36;29.19;101118.31;5051799;28;20063;-75
2022/07/29 03:35:58;;;;;;;4.93;1.67;;;;;;;25.33;29.62;101110.34;5069834;28;20040;-75
2022/07/29 03:38:30;;;;;;;3.40;1.60;;;;;;;25.32;30.02;101114.16;5051390;28;20047;-76
2022/07/29 03:41:02;;;;;;;3.25;1.50;;;;;;;25.26;29.93;101117.72;5038986;28;20048;-75
2022/07/29 03:43:32;;;;;;;3.97;1.38;;;;;;;25.22;30.41;101115.50;5052418;28;20056;-75
2022/07/29 03:46:04;;;;;;;3.08;1.55;;;;;;;25.20;30.37;101107.34;5049051;28;20076;-77
2022/07/29 03:48:37;;;;;;;3.63;1.23;;;;;;;25.14;30.19;101122.03;5049910;28;20111;-77
2022/07/29 03:51:06;;;;;;;2.50;1.20;;;;;;;25.07;30.57;101106.31;5036068;28;20049;-74
2022/07/29 03:53:36;;;;;;;3.75;1.30;;;;;;;24.99;30.75;101097.00;5059413;28;20036;-74
2022/07/29 03:56:06;;;;;;;2.45;1.20;;;;;;;24.94;31.03;101091.19;5042088;28;20041;-74
2022/07/29 03:58:35;;;;;;;2.63;1.40;;;;;;;24.88;30.89;101093.78;5025259;28;20041;-75
2022/07/29 04:01:05;;;;;;;4.18;1.48;;;;;;;24.83;31.49;101086.03;5042663;28;20072;-74
2022/07/29 04:03:34;;;;;;;3.13;1.30;;;;;;;24.76;31.54;101085.06;5026182;28;20057;-74
2022/07/29 04:06:06;;;;;;;3.10;1.48;;;;;;;24.73;31.52;101087.34;5025766;28;20511;-74
2022/07/29 04:08:34;;;;;;;3.50;1.38;;;;;;;24.67;31.33;101079.78;5045484;28;20045;-74
2022/07/29 04:11:03;;;;;;;2.85;1.52;;;;;;;24.60;31.50;101072.22;5032992;28;20052;-74
2022/07/29 04:13:32;;;;;;;3.65;1.77;;;;;;;24.56;32.02;101064.44;5041756;28;20106;-74
2022/07/29 04:16:00;;;;;;;3.72;1.67;;;;;;;24.51;32.04;101064.16;5021571;28;20060;-74
2022/07/29 04:18:29;;;;;;;3.22;1.52;;;;;;;24.47;32.33;101062.78;5046555;28;20037;-74
2022/07/29 04:21:00;;;;;;;4.32;1.73;;;;;;;24.40;31.87;101081.25;5044868;28;20049;-75
2022/07/29 04:23:32;;;;;;;3.38;1.55;;;;;;;24.35;32.24;101097.59;5049790;28;20564;-75
2022/07/29 04:26:01;;;;;;;3.27;1.60;;;;;;;24.28;32.65;101097.50;5028952;28;20128;-75
2022/07/29 04:28:29;;;;;;;4.28;1.60;;;;;;;24.26;32.65;101094.03;5050556;28;20405;-74
2022/07/29 04:30:57;;;;;;;4.78;1.92;;;;;;;24.23;32.82;101089.72;5046063;28;20293;-74
2022/07/29 04:33:25;;;;;;;3.72;1.65;;;;;;;24.21;33.40;101102.91;5059913;28;20064;-74
2022/07/29 04:35:55;;;;;;;3.13;1.55;;;;;;;24.21;33.63;101102.06;5035221;28;20049;-74
2022/07/29 04:38:23;;;;;;;4.22;1.70;;;;;;;24.17;33.15;101093.19;5028571;28;20041;-74
2022/07/29 04:40:51;;;;;;;3.90;1.60;;;;;;;24.15;33.15;101092.50;5028824;28;20094;-75
2022/07/29 04:43:19;;;;;;;3.65;1.50;;;;;;;24.14;33.64;101085.25;5047853;28;20049;-75
2022/07/29 04:45:50;;;;;;;3.85;1.50;;;;;;;24.11;33.83;101085.63;5031594;28;20424;-73
2022/07/29 04:48:18;;;;;;;3.47;1.48;;;;;;;24.09;33.75;101089.63;5058170;28;20409;-74
2022/07/29 04:50:50;;;;;;;4.43;1.65;;;;;;;24.03;34.49;101088.47;5067896;28;20051;-73
2022/07/29 04:53:20;;;;;;;3.65;1.60;;;;;;;24.04;34.85;101095.75;5040888;28;20378;-72
2022/07/29 04:55:48;;;;;;;3.38;1.75;;;;;;;23.99;34.19;101091.78;5052273;28;20044;-74
2022/07/29 04:58:16;;;;;;;2.60;1.50;;;;;;;23.96;34.52;101086.59;5063063;28;20123;-73
2022/07/29 05:00:44;;;;;;;4.10;1.60;;;;;;;23.91;34.75;101076.06;5040829;28;20047;-74
2022/07/29 05:03:14;;;;;;;3.58;1.92;;;;;;;23.83;34.97;101065.00;5054309;28;20080;-72
2022/07/29 05:05:43;;;;;;;2.78;1.42;;;;;;;23.75;34.48;101070.59;5065307;28;20048;-73
2022/07/29 05:08:11;;;;;;;4.10;1.75;;;;;;;23.68;34.71;101081.56;5056720;28;20037;-73
2022/07/29 05:10:40;;;;;;;3.80;1.88;;;;;;;23.63;34.71;101091.50;5035739;28;20095;-71
2022/07/29 05:13:08;;;;;;;3.03;1.40;;;;;;;23.55;35.02;101094.31;5050313;28;20120;-73
2022/07/29 05:15:37;;;;;;;3.38;1.65;;;;;;;23.49;35.18;101085.66;5068307;28;20094;-72
2022/07/29 05:18:05;;;;;;;4.63;1.60;;;;;;;23.44;35.44;101079.75;5065979;28;20037;-73
2022/07/29 05:20:34;;;;;;;3.70;2.00;;;;;;;23.39;35.81;101082.19;5050373;28;20564;-73
2022/07/29 05:23:03;;;;;;;3.45;1.60;;;;;;;23.33;35.83;101090.38;5048854;28;20045;-73
2022/07/29 05:25:31;;;;;;;4.65;1.80;;;;;;;23.27;35.99;101097.50;5056704;28;20045;-73
2022/07/29 05:28:13;;;;;;;3.70;1.65;;;;;;;23.24;35.77;101091.44;5047730;28;20060;-73
2022/07/29 05:30:42;;;;;;;3.20;1.85;;;;;;;23.20;35.79;101098.41;5059173;28;20045;-73
2022/07/29 05:33:10;;;;;;;4.15;1.83;;;;;;;23.17;35.97;101098.75;5032276;28;20067;-74
2022/07/29 05:35:58;;;;;;;3.10;1.70;;;;;;;23.15;36.54;101096.16;5049177;28;20049;-73
2022/07/29 05:38:28;;;;;;;4.07;1.63;;;;;;;23.15;36.63;101091.47;5048358;28;20075;-74
2022/07/29 05:40:58;;;;;;;3.13;1.60;;;;;;;23.19;36.45;101088.34;5032372;28;20456;-73
2022/07/29 05:43:28;;;;;;;4.22;1.60;;;;;;;23.19;36.29;101091.13;5041972;28;20036;-74
2022/07/29 05:45:56;;;;;;;4.20;1.70;;;;;;;23.18;36.62;101089.41;5044631;28;20044;-74
2022/07/29 05:48:25;;;;;;;2.28;1.40;;;;;;;23.18;36.89;101086.63;5055719;28;20044;-74
2022/07/29 05:50:53;;;;;;;3.70;1.85;;;;;;;23.20;36.38;101095.63;5030219;28;20466;-72
2022/07/29 05:53:22;;;;;;;3.40;1.70;;;;;;;23.21;36.33;101095.47;5048569;28;20048;-73
2022/07/29 05:55:51;;;;;;;2.83;1.70;;;;;;;23.22;36.66;101101.88;5051942;28;20053;-74
2022/07/29 05:58:19;;;;;;;4.47;1.55;;;;;;;23.22;36.58;101101.88;5056155;28;20076;-73
2022/07/29 06:00:49;;;;;;;3.20;1.70;;;;;;;23.26;36.39;101106.84;5062150;28;20052;-74
2022/07/29 06:03:17;;;;;;;2.80;1.80;;;;;;;23.26;36.85;101109.63;5042089;28;20143;-74
2022/07/29 06:05:45;;;;;;;3.20;1.77;;;;;;;23.29;36.35;101111.19;5053151;28;20437;-74
2022/07/29 06:08:13;;;;;;;3.95;1.40;;;;;;;23.29;36.27;101108.41;5050961;28;20053;-74
2022/07/29 06:10:41;;;;;;;3.60;1.63;;;;;;;23.31;36.13;101114.63;5049805;28;20128;-75
2022/07/29 06:13:09;;;;;;;4.60;1.63;;;;;;;23.32;36.47;101117.22;5049606;28;20037;-67
2022/07/29 06:15:37;;;;;;;2.35;1.40;;;;;;;23.35;36.44;101135.41;5047598;28;20119;-64
2022/07/29 06:18:08;;;;;;;2.17;1.30;;;;;;;23.39;36.12;101134.84;5030979;28;20049;-65
2022/07/29 06:20:37;;;;;;;;;;;;;;;23.12;37.01;101133.41;5049232;28;20498;-64
2022/07/29 06:23:05;;;;;;;2.72;1.30;;;;;;;23.41;36.53;101140.22;5049246;28;19925;-64
2022/07/29 06:25:35;;;;;;;4.03;1.33;;;;;;;23.47;36.68;101133.97;5047709;28;20055;-64
2022/07/29 06:28:03;;;;;;;3.60;1.67;;;;;;;23.53;36.07;101141.59;5049828;28;20487;-64
2022/07/29 06:30:31;;;;;;;3.92;1.55;;;;;;;23.57;36.42;101156.81;5048441;28;20045;-64
2022/07/29 06:33:00;;;;;;;3.80;1.88;;;;;;;23.61;37.08;101152.66;5048586;28;20493;-63
2022/07/29 06:35:29;;;;;;;2.63;1.40;;;;;;;23.67;36.84;101153.84;5047537;28;20040;-64
2022/07/29 06:38:08;;;;;;;1.77;1.27;;;;;;;23.70;36.89;101150.72;5049176;28;20051;-72
2022/07/29 06:41:03;;;;;;;3.63;1.48;;;;;;;23.75;36.76;101164.88;5048320;28;20037;-71
2022/07/29 06:43:35;;;;;;;3.33;1.73;;;;;;;23.80;36.57;101171.59;5047554;28;20053;-71
2022/07/29 06:46:19;;;;;;;2.63;1.70;;;;;;;23.82;36.44;101169.53;5048004;28;20490;-73
2022/07/29 06:48:48;;;;;;;3.30;1.42;;;;;;;23.87;36.42;101169.00;5048025;28;20415;-72
2022/07/29 06:51:18;;;;;;;4.20;1.50;;;;;;;23.91;36.88;101170.34;5047238;28;20056;-72
2022/07/29 06:53:50;;;;;;;2.30;1.42;;;;;;;23.93;36.82;101172.94;5047103;28;20037;-72
2022/07/29 06:56:30;;;;;;;3.85;1.58;;;;;;;23.94;36.96;101172.78;5049470;28;20041;-72
2022/07/29 06:58:58;;;;;;;3.17;1.70;;;;;;;23.96;37.10;101162.38;5047626;28;20110;-72
2022/07/29 07:01:28;;;;;;;3.05;1.65;;;;;;;23.98;36.60;101167.69;5030345;28;20511;-72
2022/07/29 07:03:56;;;;;;;3.35;1.67;;;;;;;24.00;36.91;101165.63;5046660;28;20036;-72
2022/07/29 07:06:26;;;;;;;3.35;1.60;;;;;;;24.05;36.64;101168.72;5048110;28;20091;-72
2022/07/29 07:08:54;;;;;;;2.40;1.52;;;;;;;24.05;36.96;101168.72;5046958;28;20067;-72
2022/07/29 07:11:22;;;;;;;3.28;1.88;;;;;;;24.08;37.18;101168.34;5048510;28;20060;-72
2022/07/29 07:13:50;;;;;;;3.05;1.73;;;;;;;24.10;37.11;101175.44;5047846;28;20045;-72
2022/07/29 07:16:18;;;;;;;3.17;1.70;;;;;;;24.12;36.85;101178.03;5047221;28;20041;-72
2022/07/29 07:18:46;;;;;;;3.97;1.90;;;;;;;24.14;37.41;101179.56;5046929;28;20073;-72
2022/07/29 07:21:14;;;;;;;4.50;1.90;;;;;;;24.16;37.20;101184.94;5049182;28;20364;-73
2022/07/29 07:23:47;;;;;;;3.73;1.97;;;;;;;24.18;37.67;101182.84;5029574;28;20047;-73
2022/07/29 07:26:15;;;;;;;4.18;1.60;;;;;;;24.19;37.65;101185.44;5047778;28;20375;-72
2022/07/29 07:28:44;;;;;;;3.88;1.52;;;;;;;24.23;37.58;101185.97;5047326;28;20041;-73
2022/07/29 07:31:12;;;;;;;4.03;1.77;;;;;;;24.23;37.76;101184.06;5048696;28;20490;-71
2022/07/29 07:33:40;;;;;;;3.28;1.80;;;;;;;24.25;37.65;101183.88;5029654;28;20095;-72
2022/07/29 07:36:08;;;;;;;3.90;1.90;;;;;;;24.26;37.81;101175.38;5046346;28;20056;-71
2022/07/29 07:38:36;;;;;;;4.15;1.95;;;;;;;24.29;37.87;101165.84;5046702;28;20510;-72
2022/07/29 07:41:06;;;;;;;4.20;2.08;;;;;;;24.33;38.12;101169.06;5030131;28;20090;-72
2022/07/29 07:43:34;;;;;;;3.83;2.15;;;;;;;24.32;38.31;101157.13;5047672;28;20056;-72
2022/07/29 07:46:02;;;;;;;4.35;1.98;;;;;;;24.32;38.38;101147.91;5047259;28;20148;-71
2022/07/29 07:48:30;;;;;;;4.80;2.00;;;;;;;24.34;39.00;101156.94;5047830;28;20041;-72
2022/07/29 07:50:58;;;;;;;3.55;2.05;;;;;;;24.35;38.52;101155.91;5047269;28;20045;-71
2022/07/29 07:53:26;;;;;;;3.53;1.88;;;;;;;24.36;38.55;101154.84;5047528;28;20041;-70
2022/07/29 07:55:54;;;;;;;5.15;2.08;;;;;;;24.36;38.83;101157.63;5047614;28;20139;-72
2022/07/29 07:58:41;;;;;;;5.55;2.10;;;;;;;24.37;39.14;101157.44;5047668;28;20036;-72
2022/07/29 08:01:09;;;;;;;3.80;2.15;;;;;;;24.37;39.07;101163.00;5047684;28;20083;-72
2022/07/29 08:03:39;;;;;;;4.82;2.42;;;;;;;24.36;38.50;101172.38;5029095;28;20493;-72
2022/07/29 08:06:10;;;;;;;4.05;2.28;;;;;;;24.38;39.04;101164.69;5047583;28;20147;-71
2022/07/29 08:08:38;;;;;;;4.75;2.40;;;;;;;24.36;38.56;101165.94;5047246;28;20045;-70
2022/07/29 08:11:06;;;;;;;6.47;2.97;;;;;;;24.35;39.14;101158.66;5045919;28;20451;-71
2022/07/29 08:13:38;;;;;;;5.45;2.50;;;;;;;24.34;39.09;101162.50;5029394;28;20248;-71
2022/07/29 08:16:12;;;;;;;4.10;2.67;;;;;;;24.32;39.04;101164.56;5046889;28;20447;-70
2022/07/29 08:18:42;;;;;;;3.95;2.40;;;;;;;24.26;38.92;101155.94;5051037;28;20132;-72
2022/07/29 08:21:10;;;;;;;3.22;2.20;;;;;;;24.23;39.14;101166.53;5052079;28;20558;-72
2022/07/29 08:23:48;;;;;;;4.50;2.50;;;;;;;24.18;38.69;101166.22;5033162;28;20071;-71
2022/07/29 08:26:26;;;;;;;4.78;2.20;;;;;;;24.15;38.74;101170.19;5052034;28;20136;-71
2022/07/29 08:28:54;;;;;;;3.55;2.20;;;;;;;24.14;38.87;101167.59;5050552;28;20049;-71
2022/07/29 08:31:24;;;;;;;5.05;2.25;;;;;;;24.14;38.81;101165.69;5051426;28;20083;-71
2022/07/29 08:33:52;;;;;;;4.60;2.08;;;;;;;24.11;39.10;101166.09;5050123;28;20041;-72
2022/07/29 08:36:21;;;;;;;4.18;2.35;;;;;;;24.09;38.91;101172.84;5051259;28;20102;-71
2022/07/29 08:38:50;;;;;;;4.82;2.20;;;;;;;24.08;39.51;101177.53;5032082;28;20286;-71
2022/07/29 08:41:19;;;;;;;5.00;2.47;;;;;;;24.10;39.28;101174.59;5050777;28;20060;-71
2022/07/29 08:43:47;;;;;;;4.38;2.17;;;;;;;24.09;39.33;101170.94;5050533;28;20045;-72
2022/07/29 08:46:16;;;;;;;4.55;2.30;;;;;;;24.10;39.83;101163.47;5051198;28;20111;-71
2022/07/29 08:48:46;;;;;;;4.25;2.25;;;;;;;24.12;40.08;101153.94;5031985;28;20041;-71
2022/07/29 08:51:16;;;;;;;6.68;2.38;;;;;;;24.13;39.88;101147.31;5033343;28;20049;-71
2022/07/29 08:53:47;;;;;;;5.30;2.28;;;;;;;24.15;39.86;101147.13;5050010;28;20033;-71
2022/07/29 08:56:17;;;;;;;5.50;2.03;;;;;;;24.15;39.67;101142.47;5050580;28;20052;-71
2022/07/29 08:58:47;;;;;;;3.85;2.20;;;;;;;24.17;40.34;101148.69;5049511;28;20043;-75
2022/07/29 09:01:23;;;;;;;6.47;2.30;;;;;;;24.21;40.23;101160.34;5051411;28;20504;-71
2022/07/29 09:04:09;;;;;;;4.50;2.47;;;;;;;24.23;40.48;101161.00;5049103;28;20083;-71
2022/07/29 09:06:43;;;;;;;2.90;1.90;;;;;;;24.23;39.99;101161.84;5033022;28;20048;-72
2022/07/29 09:09:13;;;;;;;4.20;1.95;;;;;;;24.22;39.84;101162.91;5049512;28;20049;-72
2022/07/29 09:11:42;;;;;;;3.35;1.80;;;;;;;24.25;40.10;101157.00;5049983;28;20041;-71
2022/07/29 09:14:12;;;;;;;4.28;2.20;;;;;;;24.29;40.65;101160.28;5049374;28;20505;-72
2022/07/29 09:16:53;;;;;;;3.97;2.20;;;;;;;24.32;40.94;101159.03;5049350;28;20147;-71
2022/07/29 09:19:31;;;;;;;4.80;1.92;;;;;;;24.34;41.05;101163.34;5049335;28;20770;-72
2022/07/29 09:22:04;;;;;;;3.90;2.10;;;;;;;24.33;40.01;101171.84;5051286;28;20440;-71
2022/07/29 09:24:41;;;;;;;5.15;2.28;;;;;;;24.38;40.64;101164.69;5047855;28;20055;-72
2022/07/29 09:27:23;;;;;;;3.63;1.95;;;;;;;24.40;40.56;101168.16;5032735;28;20124;-72
2022/07/29 09:30:01;;;;;;;4.10;2.28;;;;;;;24.44;40.45;101163.97;5048253;28;20076;-72
2022/07/29 09:32:30;;;;;;;4.03;2.17;;;;;;;24.43;40.31;101173.34;5032457;28;20056;-71
2022/07/29 09:35:21;;;;;;;4.75;2.00;;;;;;;24.45;40.36;101168.47;5049023;28;20041;-72
2022/07/29 09:37:50;;;;;;;4.15;2.38;;;;;;;24.48;40.24;101167.22;5049713;28;20140;-71
2022/07/29 09:40:21;;;;;;;4.07;2.17;;;;;;;24.53;40.24;101170.34;5031540;28;20485;-70
2022/07/29 09:42:50;;;;;;;4.82;2.28;;;;;;;24.55;39.78;101166.28;5050145;28;20041;-71
2022/07/29 09:45:29;;;;;;;5.35;2.20;;;;;;;24.60;40.42;101174.09;5048047;28;20045;-71
2022/07/29 09:48:02;;;;;;;4.38;2.33;;;;;;;24.59;39.83;101170.44;5031996;28;20059;-72
2022/07/29 09:50:44;;;;;;;3.80;2.17;;;;;;;24.65;40.55;101169.69;5048898;28;20056;-72
2022/07/29 09:53:12;;;;;;;5.10;2.50;;;;;;;24.61;40.12;101165.56;5010515;28;20038;-70
2022/07/29 09:55:49;;;;;;;4.10;2.10;;;;;;;24.71;40.15;101165.28;5006376;28;20137;-69
2022/07/29 09:58:21;;;;;;;3.78;2.20;;;;;;;24.70;40.23;101171.06;4992744;28;20057;-70
2022/07/29 10:00:51;;;;;;;4.53;2.13;;;;;;;24.73;39.79;101176.22;5014509;28;20049;-69
2022/07/29 10:03:20;;;;;;;5.00;2.38;;;;;;;24.74;39.94;101180.72;5021792;28;20059;-70
2022/07/29 10:06:05;;;;;;;4.20;2.03;;;;;;;24.76;40.10;101182.28;5011432;28;20041;-69
2022/07/29 10:08:34;;;;;;;3.47;1.95;;;;;;;24.76;39.57;101182.28;5009247;28;22227;-69
2022/07/29 10:11:10;;;;;;;4.35;2.10;;;;;;;24.82;39.86;101186.22;5028597;28;20041;-69
2022/07/29 10:13:39;;;;;;;3.75;2.20;;;;;;;24.80;39.38;101185.53;5024670;28;20583;-69
2022/07/29 10:16:08;;;;;;;2.83;1.88;;;;;;;24.82;39.85;101189.00;5028134;28;20042;-69
2022/07/29 10:18:36;;;;;;;4.07;2.15;;;;;;;24.84;39.62;101184.13;5028867;28;20133;-71
2022/07/29 10:21:06;;;;;;;4.45;2.15;;;;;;;24.88;39.66;101182.69;5025730;28;20510;-70
2022/07/29 10:23:35;;;;;;;3.83;2.20;;;;;;;24.87;39.23;101183.75;5039510;28;20052;-68
2022/07/29 10:26:14;;;;;;;3.25;2.13;;;;;;;24.90;39.12;101180.59;5027305;28;20057;-70
2022/07/29 10:28:42;;;;;;;4.88;2.20;;;;;;;24.91;38.92;101187.91;5027175;28;20041;-70
2022/07/29 10:31:20;;;;;;;4.82;2.30;;;;;;;24.96;39.17;101186.28;5026143;28;20061;-69
2022/07/29 10:33:57;;;;;;;7.15;2.30;;;;;;;24.97;39.10;101188.00;5008251;28;20048;-69
2022/07/29 10:36:49;;;;;;;5.82;2.38;;;;;;;25.00;39.21;101192.34;5027044;28;20405;-69
2022/07/29 10:39:33;;;;;;;3.38;2.08;;;;;;;25.06;38.80;101193.47;5003948;28;20566;-69
2022/07/29 10:42:18;;;;;;;5.05;2.03;;;;;;;25.08;38.44;101196.94;5027224;28;20053;-68
2022/07/29 10:44:47;;;;;;;3.30;2.10;;;;;;;25.09;38.67;101191.19;5022198;28;20339;-69
2022/07/29 10:47:23;;;;;;;4.53;2.20;;;;;;;25.16;38.79;101181.06;5020343;28;20099;-69
2022/07/29 10:49:59;;;;;;;3.45;2.13;;;;;;;25.20;38.29;101185.16;5014326;28;20065;-69
2022/07/29 10:52:59;;;;;;;4.15;2.10;;;;;;;25.22;37.95;101191.41;5022750;28;20327;-69
2022/07/29 10:55:42;;;;;;;4.28;1.90;;;;;;;25.26;38.21;101184.44;5027043;28;20053;-69
2022/07/29 10:58:16;;;;;;;4.65;2.30;;;;;;;25.31;38.33;101192.19;5022583;28;20422;-69
2022/07/29 11:00:46;;;;;;;3.60;2.05;;;;;;;25.34;38.01;101198.25;5020687;28;20536;-69
2022/07/29 11:03:46;;;;;;;4.65;2.20;;;;;;;25.40;38.15;101200.25;5027517;28;20116;-69
2022/07/29 11:06:18;;;;;;;6.10;2.15;;;;;;;25.45;38.09;101196.06;5017272;28;20061;-69
2022/07/29 11:09:20;;;;;;;3.63;1.85;;;;;;;25.52;37.95;101194.22;5026391;28;20096;-68
2022/07/29 11:12:47;;;;;;;6.05;2.30;;;;;;;25.53;38.01;101194.00;5027246;28;20413;-69
2022/07/29 11:15:20;;;;;;;5.63;2.05;;;;;;;25.68;37.83;101191.28;5009672;28;20481;-69
2022/07/29 11:18:08;;;;;;;4.28;2.13;;;;;;;25.77;37.76;101190.13;5026835;28;20141;-69
2022/07/29 11:20:46;;;;;;;4.15;2.20;;;;;;;25.84;37.92;101191.06;5025523;28;20068;-69
2022/07/29 11:23:23;;;;;;;3.25;1.80;;;;;;;25.99;38.28;101191.03;5019473;28;20099;-70
2022/07/29 11:26:21;;;;;;;3.15;1.88;;;;;;;26.12;37.56;101192.06;5027303;28;20468;-69
2022/07/29 11:28:59;;;;;;;3.00;1.80;;;;;;;26.28;37.51;101193.78;5015617;28;20046;-69
2022/07/29 11:31:36;;;;;;;3.50;1.77;;;;;;;26.46;37.12;101191.41;5011188;28;20515;-69
2022/07/29 11:34:19;;;;;;;3.42;2.13;;;;;;;26.63;36.49;101185.56;5026516;28;20136;-69
2022/07/29 11:37:20;;;;;;;3.17;1.70;;;;;;;26.78;36.24;101183.56;5027663;28;20100;-69
2022/07/29 11:40:16;;;;;;;2.67;1.75;;;;;;;26.98;35.52;101187.44;5026383;28;20060;-68
2022/07/29 11:42:50;;;;;;;3.40;1.80;;;;;;;27.20;35.87;101177.09;5027306;28;20076;-69
2022/07/29 11:45:32;;;;;;;4.57;1.95;;;;;;;27.39;35.10;101184.75;5019707;28;20045;-69
2022/07/29 11:48:20;;;;;;;5.65;1.80;;;;;;;27.57;34.87;101184.25;5028118;28;20065;-68
2022/07/29 11:51:00;;;;;;;3.60;1.90;;;;;;;27.76;34.74;101188.19;5027193;28;20628;-69